Time;durP1;ratioP1;P1;durP2;ratioP2;P2;SDS_P1;SDS_P2;PMS_P1;PMS_P2;Temp;Humidity;BMP_temperature;BMP_pressure;BME280_temperature;BME280_humidity;BME280_pressure;Samples;Min_cycle;Max_cycle;Signal;HPM_P1;HPM_P2
2020/09/10 00:01:38;;;;;;;2.85;1.54;;;;;;;20.33;63.48;100840.46;;;;-56
2020/09/10 00:04:38;;;;;;;1.69;1.37;;;;;;;20.32;63.51;100838.84;;;;-55
2020/09/10 00:07:38;;;;;;;2.61;1.49;;;;;;;20.32;63.54;100839.16;;;;-56
2020/09/10 00:10:38;;;;;;;1.53;1.39;;;;;;;20.32;63.52;100845.27;;;;-56
2020/09/10 00:13:38;;;;;;;1.87;1.47;;;;;;;20.31;63.54;100846.14;;;;-50
2020/09/10 00:16:38;;;;;;;2.02;1.49;;;;;;;20.31;63.55;100844.19;;;;-54
2020/09/10 00:19:38;;;;;;;1.50;1.40;;;;;;;20.31;63.53;100843.45;;;;-54
2020/09/10 00:22:38;;;;;;;1.53;1.43;;;;;;;20.29;63.54;100840.86;;;;-56
2020/09/10 00:25:38;;;;;;;1.97;1.56;;;;;;;20.29;63.57;100841.73;;;;-51
2020/09/10 00:28:38;;;;;;;1.75;1.48;;;;;;;20.30;63.57;100846.14;;;;-56
2020/09/10 00:31:38;;;;;;;1.67;1.49;;;;;;;20.29;63.56;100841.16;;;;-55
2020/09/10 00:34:38;;;;;;;1.75;1.59;;;;;;;20.28;63.60;100843.27;;;;-55
2020/09/10 00:37:38;;;;;;;1.51;1.40;;;;;;;20.29;63.58;100841.89;;;;-54
2020/09/10 00:40:38;;;;;;;2.11;1.40;;;;;;;20.29;63.59;100838.96;;;;-55
2020/09/10 00:43:38;;;;;;;1.99;1.50;;;;;;;20.28;63.58;100835.30;;;;-56
2020/09/10 00:46:38;;;;;;;1.71;1.50;;;;;;;20.28;63.59;100835.62;;;;-56
2020/09/10 00:49:38;;;;;;;1.70;1.52;;;;;;;20.27;63.59;100839.10;;;;-56
2020/09/10 00:52:38;;;;;;;1.67;1.40;;;;;;;20.28;63.59;100842.22;;;;-51
2020/09/10 00:55:38;;;;;;;1.56;1.46;;;;;;;20.27;63.60;100843.28;;;;-50
2020/09/10 00:58:38;;;;;;;1.71;1.40;;;;;;;20.28;63.60;100845.64;;;;-51
2020/09/10 01:01:38;;;;;;;1.94;1.48;;;;;;;20.28;63.60;100848.65;;;;-52
2020/09/10 01:04:38;;;;;;;1.62;1.40;;;;;;;20.27;63.59;100848.16;;;;-52
2020/09/10 01:07:38;;;;;;;1.55;1.30;;;;;;;20.27;63.62;100849.27;;;;-53
2020/09/10 01:10:38;;;;;;;1.93;1.46;;;;;;;20.27;63.62;100846.18;;;;-55
2020/09/10 01:13:38;;;;;;;1.53;1.40;;;;;;;20.26;63.65;100848.30;;;;-54
2020/09/10 01:16:38;;;;;;;2.49;1.69;;;;;;;20.27;63.64;100847.16;;;;-55
2020/09/10 01:19:38;;;;;;;1.92;1.35;;;;;;;20.26;63.67;100846.02;;;;-54
2020/09/10 01:22:38;;;;;;;1.49;1.34;;;;;;;20.27;63.66;100847.56;;;;-54
2020/09/10 01:25:38;;;;;;;1.75;1.30;;;;;;;20.26;63.65;100846.84;;;;-53
2020/09/10 01:28:38;;;;;;;1.61;1.35;;;;;;;20.26;63.67;100849.36;;;;-54
2020/09/10 01:31:38;;;;;;;2.54;1.41;;;;;;;20.27;63.68;100848.70;;;;-54
2020/09/10 01:34:38;;;;;;;1.62;1.47;;;;;;;20.26;63.65;100851.88;;;;-52
2020/09/10 01:37:38;;;;;;;1.60;1.48;;;;;;;20.26;63.65;100854.08;;;;-52
2020/09/10 01:40:38;;;;;;;1.71;1.40;;;;;;;20.26;63.66;100852.45;;;;-52
2020/09/10 01:43:38;;;;;;;1.69;1.49;;;;;;;20.26;63.66;100849.11;;;;-52
2020/09/10 01:46:38;;;;;;;1.82;1.30;;;;;;;20.27;63.67;100850.17;;;;-52
2020/09/10 01:49:38;;;;;;;1.77;1.42;;;;;;;20.27;63.67;100847.08;;;;-51
2020/09/10 01:52:38;;;;;;;1.79;1.49;;;;;;;20.26;63.66;100844.39;;;;-52
2020/09/10 01:55:38;;;;;;;1.93;1.55;;;;;;;20.26;63.68;100842.93;;;;-51
2020/09/10 01:58:38;;;;;;;1.58;1.35;;;;;;;20.26;63.69;100844.72;;;;-51
2020/09/10 02:01:38;;;;;;;1.53;1.39;;;;;;;20.26;63.71;100848.14;;;;-51
2020/09/10 02:04:38;;;;;;;1.53;1.40;;;;;;;20.26;63.67;100849.11;;;;-50
2020/09/10 02:07:38;;;;;;;1.54;1.39;;;;;;;20.26;63.67;100846.59;;;;-56
2020/09/10 02:10:38;;;;;;;1.63;1.40;;;;;;;20.26;63.71;100845.86;;;;-56
2020/09/10 02:13:38;;;;;;;1.53;1.41;;;;;;;20.25;63.72;100840.33;;;;-56
2020/09/10 02:16:38;;;;;;;1.71;1.41;;;;;;;20.25;63.70;100843.88;;;;-56
2020/09/10 02:19:38;;;;;;;1.51;1.41;;;;;;;20.25;63.68;100849.83;;;;-56
2020/09/10 02:22:38;;;;;;;1.69;1.41;;;;;;;20.25;63.70;100848.36;;;;-54
2020/09/10 02:25:38;;;;;;;1.44;1.31;;;;;;;20.25;63.72;100847.49;;;;-54
2020/09/10 02:28:38;;;;;;;1.59;1.49;;;;;;;20.25;63.69;100849.02;;;;-54
2020/09/10 02:31:38;;;;;;;1.50;1.40;;;;;;;20.25;63.74;100852.19;;;;-55
2020/09/10 02:34:38;;;;;;;1.37;1.27;;;;;;;20.25;63.74;100850.26;;;;-54
2020/09/10 02:37:38;;;;;;;1.59;1.39;;;;;;;20.25;63.73;100847.55;;;;-52
2020/09/10 02:40:38;;;;;;;1.48;1.37;;;;;;;20.25;63.73;100848.03;;;;-52
2020/09/10 02:43:38;;;;;;;1.47;1.37;;;;;;;20.25;63.73;100852.43;;;;-51
2020/09/10 02:46:38;;;;;;;1.47;1.37;;;;;;;20.25;63.74;100848.69;;;;-51
2020/09/10 02:49:38;;;;;;;1.67;1.38;;;;;;;20.25;63.74;100848.93;;;;-51
2020/09/10 02:52:37;;;;;;;1.59;1.45;;;;;;;20.25;63.75;100849.77;;;;-51
2020/09/10 02:55:38;;;;;;;1.57;1.42;;;;;;;20.25;63.73;100847.95;;;;-50
2020/09/10 02:58:38;;;;;;;1.41;1.31;;;;;;;20.25;63.73;100853.24;;;;-51
2020/09/10 03:01:38;;;;;;;2.03;1.51;;;;;;;20.25;63.75;100845.52;;;;-51
2020/09/10 03:04:38;;;;;;;1.51;1.41;;;;;;;20.25;63.74;100842.17;;;;-52
2020/09/10 03:07:38;;;;;;;2.97;1.39;;;;;;;20.25;63.74;100842.02;;;;-56
2020/09/10 03:10:38;;;;;;;1.59;1.49;;;;;;;20.25;63.75;100845.34;;;;-56
2020/09/10 03:13:38;;;;;;;1.57;1.45;;;;;;;20.24;63.78;100845.52;;;;-56
2020/09/10 03:16:38;;;;;;;1.55;1.39;;;;;;;20.24;63.79;100843.00;;;;-56
2020/09/10 03:19:38;;;;;;;1.43;1.31;;;;;;;20.24;63.75;100845.44;;;;-56
2020/09/10 03:22:38;;;;;;;1.50;1.40;;;;;;;20.24;63.78;100844.05;;;;-50
2020/09/10 03:25:38;;;;;;;1.44;1.30;;;;;;;20.23;63.76;100848.13;;;;-50
2020/09/10 03:28:38;;;;;;;1.92;1.31;;;;;;;20.24;63.76;100842.67;;;;-51
2020/09/10 03:31:38;;;;;;;1.40;1.30;;;;;;;20.24;63.77;100842.34;;;;-54
2020/09/10 03:34:38;;;;;;;1.40;1.30;;;;;;;20.23;63.80;100841.34;;;;-54
2020/09/10 03:37:38;;;;;;;1.50;1.40;;;;;;;20.24;63.79;100840.87;;;;-54
2020/09/10 03:40:38;;;;;;;1.52;1.40;;;;;;;20.23;63.82;100844.76;;;;-55
2020/09/10 03:43:38;;;;;;;2.30;1.41;;;;;;;20.23;63.79;100840.45;;;;-56
2020/09/10 03:46:38;;;;;;;1.50;1.40;;;;;;;20.23;63.83;100836.89;;;;-56
2020/09/10 03:49:38;;;;;;;1.37;1.26;;;;;;;20.23;63.80;100837.92;;;;-56
2020/09/10 03:52:38;;;;;;;1.30;1.20;;;;;;;20.23;63.82;100837.59;;;;-55
2020/09/10 03:55:38;;;;;;;1.40;1.30;;;;;;;20.23;63.80;100837.59;;;;-56
2020/09/10 03:58:38;;;;;;;1.20;1.18;;;;;;;20.23;63.78;100837.59;;;;-56
2020/09/10 04:01:38;;;;;;;1.41;1.30;;;;;;;20.23;63.81;100840.20;;;;-56
2020/09/10 04:04:38;;;;;;;6.22;2.18;;;;;;;20.22;66.10;100838.83;;;;-57
2020/09/10 04:07:38;;;;;;;4.25;2.39;;;;;;;20.20;67.73;100839.45;;;;-57
2020/09/10 04:10:38;;;;;;;3.50;2.38;;;;;;;20.18;67.99;100837.40;;;;-56
2020/09/10 04:13:38;;;;;;;4.41;2.61;;;;;;;20.17;68.73;100842.69;;;;-55
2020/09/10 04:16:38;;;;;;;2.93;2.56;;;;;;;20.10;69.36;100840.41;;;;-57
2020/09/10 04:19:38;;;;;;;6.47;2.87;;;;;;;20.12;69.37;100843.69;;;;-52
2020/09/10 04:22:38;;;;;;;4.56;2.56;;;;;;;20.09;69.73;100842.05;;;;-57
2020/09/10 04:25:38;;;;;;;5.11;2.55;;;;;;;20.07;70.15;100844.88;;;;-57
2020/09/10 04:28:38;;;;;;;4.47;2.54;;;;;;;20.04;70.37;100844.34;;;;-57
2020/09/10 04:31:38;;;;;;;3.21;2.50;;;;;;;20.04;70.60;100842.30;;;;-55
2020/09/10 04:34:38;;;;;;;4.51;2.54;;;;;;;19.98;70.86;100839.98;;;;-56
2020/09/10 04:37:38;;;;;;;5.85;2.87;;;;;;;20.00;70.93;100843.31;;;;-56
2020/09/10 04:40:38;;;;;;;4.35;2.74;;;;;;;19.95;71.27;100839.70;;;;-56
2020/09/10 04:43:38;;;;;;;5.21;3.05;;;;;;;19.95;71.19;100841.33;;;;-57
2020/09/10 04:46:38;;;;;;;6.22;2.81;;;;;;;19.97;71.37;100842.89;;;;-57
2020/09/10 04:49:38;;;;;;;4.09;2.88;;;;;;;19.97;71.57;100843.70;;;;-57
2020/09/10 04:52:38;;;;;;;5.73;3.06;;;;;;;19.94;71.73;100842.60;;;;-55
2020/09/10 04:55:38;;;;;;;5.02;3.23;;;;;;;19.94;71.75;100841.05;;;;-57
2020/09/10 04:58:38;;;;;;;8.20;3.61;;;;;;;19.92;72.29;100841.88;;;;-55
2020/09/10 05:01:38;;;;;;;5.67;3.49;;;;;;;19.92;72.45;100844.97;;;;-54
2020/09/10 05:04:38;;;;;;;5.13;3.59;;;;;;;19.92;72.95;100845.02;;;;-56
2020/09/10 05:07:38;;;;;;;5.53;3.66;;;;;;;19.91;72.91;100848.69;;;;-56
2020/09/10 05:10:38;;;;;;;4.49;3.41;;;;;;;19.92;73.28;100845.09;;;;-56
2020/09/10 05:13:38;;;;;;;5.59;3.59;;;;;;;19.94;73.25;100845.12;;;;-56
2020/09/10 05:16:38;;;;;;;5.75;3.79;;;;;;;19.92;73.53;100846.31;;;;-56
2020/09/10 05:19:37;;;;;;;4.81;3.43;;;;;;;19.92;73.61;100848.70;;;;-53
2020/09/10 05:22:38;;;;;;;5.01;3.31;;;;;;;19.91;73.85;100846.23;;;;-55
2020/09/10 05:25:38;;;;;;;4.48;3.61;;;;;;;19.92;73.81;100847.95;;;;-56
2020/09/10 05:28:38;;;;;;;4.39;3.32;;;;;;;19.93;74.22;100850.98;;;;-56
2020/09/10 05:31:38;;;;;;;4.66;3.23;;;;;;;19.92;74.10;100851.77;;;;-55
2020/09/10 05:34:38;;;;;;;4.93;3.47;;;;;;;19.92;74.48;100856.33;;;;-53
2020/09/10 05:37:38;;;;;;;4.75;3.63;;;;;;;19.92;74.80;100858.03;;;;-53
2020/09/10 05:40:38;;;;;;;5.59;3.20;;;;;;;19.93;74.86;100857.81;;;;-53
2020/09/10 05:43:38;;;;;;;6.66;3.23;;;;;;;19.92;74.92;100858.20;;;;-51
2020/09/10 05:46:38;;;;;;;4.01;3.17;;;;;;;19.93;74.97;100857.98;;;;-51
2020/09/10 05:49:38;;;;;;;4.73;3.18;;;;;;;19.95;75.06;100859.71;;;;-51
2020/09/10 05:52:38;;;;;;;4.42;3.29;;;;;;;19.94;75.11;100861.15;;;;-53
2020/09/10 05:55:38;;;;;;;5.41;3.16;;;;;;;19.94;75.02;100861.15;;;;-53
2020/09/10 05:58:38;;;;;;;5.01;3.35;;;;;;;19.93;75.32;100860.25;;;;-53
2020/09/10 06:01:38;;;;;;;4.57;3.50;;;;;;;19.95;75.48;100861.33;;;;-51
2020/09/10 06:04:38;;;;;;;4.74;3.38;;;;;;;19.93;75.84;100861.48;;;;-51
2020/09/10 06:07:38;;;;;;;4.07;3.48;;;;;;;19.95;76.21;100862.72;;;;-53
2020/09/10 06:10:38;;;;;;;5.96;3.49;;;;;;;19.96;76.31;100863.39;;;;-53
2020/09/10 06:13:38;;;;;;;5.81;3.61;;;;;;;19.95;77.08;100861.74;;;;-53
2020/09/10 06:16:38;;;;;;;5.52;3.52;;;;;;;19.96;77.48;100869.41;;;;-53
2020/09/10 06:19:38;;;;;;;4.18;3.41;;;;;;;19.98;77.53;100872.85;;;;-53
2020/09/10 06:22:38;;;;;;;4.39;3.43;;;;;;;19.96;78.21;100870.39;;;;-57
2020/09/10 06:25:38;;;;;;;4.87;3.39;;;;;;;19.95;78.45;100864.67;;;;-57
2020/09/10 06:28:38;;;;;;;3.86;3.38;;;;;;;19.98;78.36;100869.66;;;;-57
2020/09/10 06:31:38;;;;;;;4.29;3.47;;;;;;;19.98;78.49;100874.37;;;;-57
2020/09/10 06:34:38;;;;;;;4.41;3.53;;;;;;;19.97;78.94;100879.98;;;;-57
2020/09/10 06:37:38;;;;;;;4.23;3.35;;;;;;;19.99;78.55;100888.06;;;;-56
2020/09/10 06:40:38;;;;;;;3.69;3.28;;;;;;;20.02;78.27;100888.49;;;;-55
2020/09/10 06:43:38;;;;;;;4.54;3.25;;;;;;;20.03;78.03;100892.02;;;;-53
2020/09/10 06:46:38;;;;;;;3.63;3.17;;;;;;;20.03;78.10;100898.03;;;;-52
2020/09/10 06:49:38;;;;;;;4.55;3.26;;;;;;;20.03;78.24;100898.20;;;;-56
2020/09/10 06:52:38;;;;;;;4.69;3.11;;;;;;;20.02;77.92;100903.22;;;;-57
2020/09/10 06:55:38;;;;;;;3.99;3.27;;;;;;;20.03;77.92;100905.69;;;;-56
2020/09/10 06:58:38;;;;;;;5.68;3.19;;;;;;;20.02;77.82;100903.70;;;;-52
2020/09/10 07:01:38;;;;;;;5.11;2.94;;;;;;;20.00;77.53;100901.00;;;;-51
2020/09/10 07:04:38;;;;;;;5.16;3.01;;;;;;;20.01;77.51;100898.58;;;;-51
2020/09/10 07:07:38;;;;;;;4.21;2.97;;;;;;;20.01;77.65;100902.89;;;;-51
2020/09/10 07:10:38;;;;;;;3.80;2.91;;;;;;;20.02;77.90;100901.83;;;;-55
2020/09/10 07:13:38;;;;;;;3.58;2.67;;;;;;;20.02;77.23;100904.84;;;;-51
2020/09/10 07:16:38;;;;;;;3.22;2.58;;;;;;;20.00;77.29;100906.77;;;;-52
2020/09/10 07:19:38;;;;;;;3.00;2.60;;;;;;;19.98;76.89;100907.80;;;;-51
2020/09/10 07:22:38;;;;;;;3.53;2.66;;;;;;;19.95;76.52;100909.58;;;;-51
2020/09/10 07:25:38;;;;;;;3.89;2.53;;;;;;;19.98;76.00;100916.30;;;;-51
2020/09/10 07:28:38;;;;;;;2.75;2.33;;;;;;;19.98;75.13;100917.65;;;;-51
2020/09/10 07:31:38;;;;;;;4.29;2.31;;;;;;;19.96;74.70;100915.75;;;;-56
2020/09/10 07:34:38;;;;;;;2.84;2.25;;;;;;;19.95;74.22;100921.29;;;;-55
2020/09/10 07:37:38;;;;;;;4.15;2.21;;;;;;;19.94;73.75;100924.35;;;;-55
2020/09/10 07:40:38;;;;;;;2.97;2.17;;;;;;;19.94;73.76;100934.36;;;;-57
2020/09/10 07:43:38;;;;;;;2.89;2.21;;;;;;;19.92;73.82;100932.55;;;;-56
2020/09/10 07:46:38;;;;;;;2.63;2.21;;;;;;;19.91;73.75;100935.15;;;;-52
2020/09/10 07:49:38;;;;;;;2.35;2.10;;;;;;;19.89;73.53;100935.05;;;;-52
2020/09/10 07:52:38;;;;;;;2.43;2.03;;;;;;;19.89;73.48;100936.91;;;;-55
2020/09/10 07:55:38;;;;;;;2.93;2.07;;;;;;;19.92;73.39;100941.17;;;;-57
2020/09/10 07:58:38;;;;;;;2.11;2.00;;;;;;;19.94;73.50;100945.98;;;;-57
2020/09/10 08:01:38;;;;;;;2.56;2.00;;;;;;;19.95;73.88;100949.52;;;;-56
2020/09/10 08:04:38;;;;;;;2.47;2.09;;;;;;;19.95;73.99;100957.16;;;;-51
2020/09/10 08:07:38;;;;;;;2.21;1.97;;;;;;;19.94;73.82;100956.98;;;;-52
2020/09/10 08:10:38;;;;;;;7.41;2.19;;;;;;;19.91;73.91;100954.42;;;;-48
2020/09/10 08:13:38;;;;;;;5.07;2.06;;;;;;;19.94;73.63;100961.64;;;;-56
2020/09/10 08:16:38;;;;;;;2.65;1.95;;;;;;;19.98;73.43;100967.36;;;;-49
2020/09/10 08:19:38;;;;;;;5.39;1.93;;;;;;;20.02;73.23;100969.52;;;;-56
2020/09/10 08:22:38;;;;;;;7.35;2.19;;;;;;;20.04;73.22;100969.71;;;;-60
2020/09/10 08:25:38;;;;;;;4.75;2.05;;;;;;;20.08;72.96;100970.41;;;;-50
2020/09/10 08:28:38;;;;;;;5.83;2.06;;;;;;;20.12;73.05;100972.41;;;;-48
2020/09/10 08:31:38;;;;;;;3.43;2.09;;;;;;;20.16;73.22;100975.97;;;;-58
2020/09/10 08:34:38;;;;;;;5.91;2.29;;;;;;;20.18;73.02;100977.38;;;;-52
2020/09/10 08:37:38;;;;;;;5.03;2.09;;;;;;;20.21;73.21;100983.41;;;;-48
2020/09/10 08:40:38;;;;;;;10.65;2.38;;;;;;;20.22;73.55;100984.50;;;;-55
2020/09/10 08:43:38;;;;;;;5.79;2.27;;;;;;;20.24;73.12;100989.33;;;;-60
2020/09/10 08:46:38;;;;;;;8.51;2.23;;;;;;;20.23;72.93;100988.81;;;;-59
2020/09/10 08:49:38;;;;;;;7.47;2.20;;;;;;;20.25;72.78;100989.73;;;;-59
2020/09/10 08:52:38;;;;;;;6.58;2.03;;;;;;;20.25;72.63;100989.27;;;;-54
2020/09/10 08:55:38;;;;;;;10.05;2.12;;;;;;;20.26;72.42;100985.12;;;;-47
2020/09/10 08:58:38;;;;;;;6.61;2.46;;;;;;;20.26;72.55;100983.89;;;;-56
2020/09/10 09:01:38;;;;;;;6.74;2.17;;;;;;;20.28;72.49;100981.48;;;;-54
2020/09/10 09:04:38;;;;;;;5.22;2.13;;;;;;;20.29;72.41;100978.38;;;;-51
2020/09/10 09:07:38;;;;;;;6.03;2.33;;;;;;;20.30;72.46;100978.66;;;;-57
2020/09/10 09:10:38;;;;;;;5.09;1.89;;;;;;;20.29;72.05;100977.77;;;;-52
2020/09/10 09:13:38;;;;;;;5.03;1.99;;;;;;;20.33;72.23;100976.39;;;;-52
2020/09/10 09:16:38;;;;;;;4.14;1.85;;;;;;;20.34;72.06;100979.59;;;;-53
2020/09/10 09:19:38;;;;;;;6.41;2.01;;;;;;;20.34;72.20;100979.11;;;;-57
2020/09/10 09:22:38;;;;;;;6.67;2.07;;;;;;;20.36;72.07;100982.47;;;;-52
2020/09/10 09:25:38;;;;;;;4.51;2.13;;;;;;;20.36;72.11;100977.09;;;;-56
2020/09/10 09:28:38;;;;;;;3.61;1.79;;;;;;;20.38;71.94;100979.07;;;;-52
2020/09/10 09:31:38;;;;;;;5.76;2.05;;;;;;;20.40;71.91;100984.39;;;;-55
2020/09/10 09:34:38;;;;;;;5.95;1.89;;;;;;;20.42;71.86;100984.14;;;;-58
2020/09/10 09:37:38;;;;;;;4.73;1.80;;;;;;;20.42;71.75;100984.38;;;;-51
2020/09/10 09:40:38;;;;;;;3.68;1.89;;;;;;;20.43;71.69;100983.10;;;;-53
2020/09/10 09:43:38;;;;;;;7.37;2.01;;;;;;;20.44;71.68;100981.42;;;;-58
2020/09/10 09:46:38;;;;;;;3.76;1.85;;;;;;;20.45;71.60;100979.22;;;;-51
2020/09/10 09:49:38;;;;;;;3.03;1.79;;;;;;;20.46;71.52;100982.39;;;;-57
2020/09/10 09:52:38;;;;;;;2.51;1.77;;;;;;;20.47;71.48;100985.91;;;;-50
2020/09/10 09:55:38;;;;;;;3.71;2.05;;;;;;;20.48;71.38;100988.27;;;;-57
2020/09/10 09:58:38;;;;;;;3.65;1.83;;;;;;;20.48;71.44;100988.05;;;;-46
2020/09/10 10:01:38;;;;;;;2.74;1.79;;;;;;;20.49;71.32;100988.38;;;;-51
2020/09/10 10:04:38;;;;;;;3.23;1.95;;;;;;;20.51;71.27;100987.75;;;;-51
2020/09/10 10:07:38;;;;;;;3.99;2.03;;;;;;;20.50;71.39;100987.51;;;;-53
2020/09/10 10:10:38;;;;;;;4.53;1.74;;;;;;;20.52;71.31;100988.89;;;;-53
2020/09/10 10:13:38;;;;;;;4.36;1.78;;;;;;;20.52;71.18;100984.08;;;;-57
2020/09/10 10:16:37;;;;;;;6.01;1.78;;;;;;;20.52;71.08;100982.48;;;;-59
2020/09/10 10:19:38;;;;;;;2.71;1.67;;;;;;;20.52;71.11;100981.23;;;;-51
2020/09/10 10:22:38;;;;;;;3.75;1.97;;;;;;;20.53;71.04;100979.30;;;;-48
2020/09/10 10:25:38;;;;;;;4.57;1.76;;;;;;;20.53;70.99;100982.40;;;;-47
2020/09/10 10:28:38;;;;;;;3.59;1.72;;;;;;;20.52;70.94;100981.51;;;;-47
2020/09/10 10:31:38;;;;;;;2.88;1.79;;;;;;;20.52;70.90;100976.19;;;;-48
2020/09/10 10:34:38;;;;;;;2.63;1.69;;;;;;;20.51;70.85;100974.31;;;;-49
2020/09/10 10:37:38;;;;;;;2.78;1.59;;;;;;;20.51;70.75;100969.75;;;;-49
2020/09/10 10:40:38;;;;;;;4.56;1.73;;;;;;;20.50;70.68;100966.02;;;;-48
2020/09/10 10:43:38;;;;;;;3.26;1.60;;;;;;;20.50;70.68;100967.70;;;;-49
2020/09/10 10:46:38;;;;;;;3.46;1.79;;;;;;;20.49;70.65;100967.29;;;;-48
2020/09/10 10:49:38;;;;;;;2.58;1.63;;;;;;;20.49;70.58;100957.36;;;;-48
2020/09/10 10:52:38;;;;;;;3.35;1.59;;;;;;;20.49;70.52;100954.75;;;;-49
2020/09/10 10:55:38;;;;;;;1.99;1.66;;;;;;;20.48;70.55;100950.20;;;;-49
2020/09/10 10:58:38;;;;;;;3.12;1.73;;;;;;;20.48;70.47;100944.95;;;;-49
2020/09/10 11:01:38;;;;;;;3.35;1.61;;;;;;;20.49;70.38;100946.29;;;;-53
2020/09/10 11:04:38;;;;;;;2.42;1.60;;;;;;;20.48;70.33;100937.66;;;;-49
2020/09/10 11:07:38;;;;;;;2.33;1.65;;;;;;;20.47;70.30;100936.17;;;;-48
2020/09/10 11:10:38;;;;;;;1.94;1.57;;;;;;;20.48;70.26;100939.77;;;;-57
2020/09/10 11:13:38;;;;;;;2.95;1.68;;;;;;;20.48;70.28;100938.12;;;;-48
2020/09/10 11:16:38;;;;;;;1.95;1.50;;;;;;;20.47;70.15;100933.08;;;;-48
2020/09/10 11:19:38;;;;;;;2.87;1.59;;;;;;;20.47;70.19;100933.32;;;;-48
2020/09/10 11:22:38;;;;;;;3.03;1.62;;;;;;;20.47;70.18;100929.98;;;;-53
2020/09/10 11:25:38;;;;;;;1.91;1.51;;;;;;;20.46;70.08;100924.04;;;;-57
2020/09/10 11:28:38;;;;;;;2.80;1.64;;;;;;;20.46;70.11;100922.88;;;;-52
2020/09/10 11:31:38;;;;;;;3.20;1.63;;;;;;;20.46;70.07;100915.66;;;;-48
2020/09/10 11:34:38;;;;;;;2.32;1.59;;;;;;;20.45;70.07;100916.61;;;;-52
2020/09/10 11:37:38;;;;;;;3.38;1.53;;;;;;;20.46;70.01;100919.20;;;;-57
2020/09/10 11:40:38;;;;;;;3.05;1.62;;;;;;;20.45;70.02;100919.54;;;;-56
2020/09/10 11:43:38;;;;;;;5.75;1.79;;;;;;;20.47;70.02;100913.70;;;;-57
2020/09/10 11:46:38;;;;;;;1.91;1.60;;;;;;;20.46;70.04;100908.73;;;;-48
2020/09/10 11:49:38;;;;;;;2.95;1.51;;;;;;;20.49;70.09;100910.63;;;;-57
2020/09/10 11:52:38;;;;;;;2.65;1.57;;;;;;;20.50;70.06;100908.42;;;;-56
2020/09/10 11:55:38;;;;;;;2.69;1.60;;;;;;;20.52;70.07;100899.16;;;;-51
2020/09/10 11:58:38;;;;;;;1.97;1.59;;;;;;;20.54;70.05;100896.73;;;;-54
2020/09/10 12:01:38;;;;;;;2.41;1.50;;;;;;;20.55;70.09;100895.21;;;;-58
2020/09/10 12:04:38;;;;;;;2.01;1.51;;;;;;;20.57;70.01;100895.88;;;;-51
2020/09/10 12:07:38;;;;;;;3.27;1.60;;;;;;;20.57;70.02;100888.71;;;;-56
2020/09/10 12:10:38;;;;;;;2.56;1.61;;;;;;;20.58;69.94;100891.91;;;;-51
2020/09/10 12:13:38;;;;;;;3.10;1.50;;;;;;;20.59;69.99;100892.91;;;;-50
2020/09/10 12:16:37;;;;;;;5.55;1.71;;;;;;;20.59;70.02;100883.23;;;;-51
2020/09/10 12:19:38;;;;;;;3.64;1.74;;;;;;;20.61;70.18;100880.89;;;;-49
2020/09/10 12:22:38;;;;;;;7.33;1.87;;;;;;;20.61;70.03;100875.23;;;;-49
2020/09/10 12:25:38;;;;;;;8.47;1.99;;;;;;;20.62;70.09;100880.15;;;;-47
2020/09/10 12:28:38;;;;;;;4.89;1.62;;;;;;;20.63;70.04;100870.53;;;;-62
2020/09/10 12:31:38;;;;;;;6.45;1.65;;;;;;;20.64;69.92;100865.83;;;;-63
2020/09/10 12:34:38;;;;;;;3.18;1.71;;;;;;;20.65;69.93;100865.45;;;;-47
2020/09/10 12:37:38;;;;;;;5.34;1.68;;;;;;;20.66;69.96;100861.94;;;;-53
2020/09/10 12:40:38;;;;;;;6.59;1.69;;;;;;;20.66;69.90;100860.87;;;;-51
2020/09/10 12:43:38;;;;;;;11.90;2.32;;;;;;;20.68;69.99;100855.52;;;;-55
2020/09/10 12:46:38;;;;;;;13.56;2.04;;;;;;;20.70;70.01;100852.36;;;;-54
2020/09/10 12:49:38;;;;;;;8.79;2.03;;;;;;;20.70;69.98;100843.56;;;;-53
2020/09/10 12:52:38;;;;;;;8.35;1.98;;;;;;;20.71;69.88;100846.41;;;;-56
2020/09/10 12:55:38;;;;;;;8.01;2.02;;;;;;;20.70;69.82;100842.17;;;;-56
2020/09/10 12:58:38;;;;;;;9.34;1.99;;;;;;;20.68;69.77;100830.92;;;;-54
2020/09/10 13:01:38;;;;;;;6.69;1.92;;;;;;;20.68;69.62;100832.80;;;;-54
2020/09/10 13:04:38;;;;;;;9.66;2.00;;;;;;;20.67;69.68;100827.59;;;;-54
2020/09/10 13:07:38;;;;;;;7.52;1.79;;;;;;;20.67;69.67;100822.52;;;;-54
2020/09/10 13:10:38;;;;;;;5.53;1.71;;;;;;;20.67;69.58;100820.59;;;;-54
2020/09/10 13:13:38;;;;;;;4.73;1.85;;;;;;;20.66;69.54;100817.39;;;;-54
2020/09/10 13:16:38;;;;;;;6.76;1.84;;;;;;;20.66;69.57;100813.40;;;;-53
2020/09/10 13:19:38;;;;;;;9.05;1.94;;;;;;;20.66;69.56;100812.83;;;;-50
2020/09/10 13:22:38;;;;;;;6.61;1.79;;;;;;;20.68;69.65;100811.62;;;;-50
2020/09/10 13:25:38;;;;;;;10.45;1.97;;;;;;;20.69;69.63;100807.16;;;;-47
2020/09/10 13:28:38;;;;;;;12.30;2.01;;;;;;;20.70;69.72;100805.28;;;;-48
2020/09/10 13:31:38;;;;;;;8.11;1.92;;;;;;;20.71;69.71;100807.23;;;;-60
2020/09/10 13:34:38;;;;;;;11.61;2.11;;;;;;;20.73;69.71;100803.34;;;;-58
2020/09/10 13:37:38;;;;;;;7.87;1.88;;;;;;;20.74;69.61;100796.27;;;;-52
2020/09/10 13:40:38;;;;;;;3.86;1.89;;;;;;;20.75;69.63;100793.69;;;;-49
2020/09/10 13:43:38;;;;;;;6.85;2.07;;;;;;;20.75;69.57;100788.72;;;;-57
2020/09/10 13:46:38;;;;;;;6.65;1.72;;;;;;;20.76;69.50;100782.77;;;;-56
2020/09/10 13:49:38;;;;;;;5.25;1.83;;;;;;;20.77;69.46;100777.78;;;;-57
2020/09/10 13:52:38;;;;;;;6.69;1.79;;;;;;;20.78;69.65;100776.02;;;;-57
2020/09/10 13:55:38;;;;;;;5.59;1.64;;;;;;;20.79;69.54;100766.89;;;;-51
2020/09/10 13:58:38;;;;;;;7.89;1.91;;;;;;;20.79;69.58;100756.70;;;;-50
2020/09/10 14:01:38;;;;;;;3.93;1.78;;;;;;;20.79;69.62;100755.64;;;;-49
2020/09/10 14:04:38;;;;;;;3.37;1.74;;;;;;;20.81;69.51;100755.17;;;;-50
2020/09/10 14:07:38;;;;;;;3.76;1.64;;;;;;;20.81;69.47;100754.92;;;;-59
2020/09/10 14:10:38;;;;;;;2.87;1.69;;;;;;;20.81;69.49;100753.45;;;;-57
2020/09/10 14:13:37;;;;;;;8.19;2.00;;;;;;;20.82;69.52;100747.12;;;;-59
2020/09/10 14:16:38;;;;;;;5.57;1.72;;;;;;;20.83;69.64;100739.05;;;;-49
2020/09/10 14:19:38;;;;;;;8.27;1.76;;;;;;;20.84;69.45;100735.73;;;;-58
2020/09/10 14:22:38;;;;;;;6.10;1.79;;;;;;;20.85;69.40;100734.74;;;;-54
2020/09/10 14:25:38;;;;;;;4.83;1.67;;;;;;;20.86;69.33;100733.22;;;;-60
2020/09/10 14:28:38;;;;;;;8.75;1.92;;;;;;;20.86;69.47;100728.66;;;;-59
2020/09/10 14:31:38;;;;;;;4.12;1.73;;;;;;;20.87;69.35;100721.89;;;;-54
2020/09/10 14:34:38;;;;;;;7.47;1.71;;;;;;;20.88;69.42;100717.19;;;;-48
2020/09/10 14:37:38;;;;;;;6.39;1.75;;;;;;;20.88;69.37;100713.03;;;;-51
2020/09/10 14:40:38;;;;;;;3.48;1.71;;;;;;;20.89;69.32;100713.02;;;;-57
2020/09/10 14:43:38;;;;;;;7.49;1.65;;;;;;;20.89;69.36;100707.56;;;;-60
2020/09/10 14:46:38;;;;;;;4.04;1.54;;;;;;;20.89;69.32;100705.59;;;;-57
2020/09/10 14:49:38;;;;;;;4.94;1.79;;;;;;;20.91;69.37;100700.89;;;;-54
2020/09/10 14:52:38;;;;;;;3.16;1.60;;;;;;;20.91;69.23;100695.34;;;;-56
2020/09/10 14:55:37;;;;;;;5.27;1.78;;;;;;;20.91;69.27;100689.48;;;;-54
2020/09/10 14:58:38;;;;;;;3.73;1.70;;;;;;;20.92;69.30;100691.05;;;;-52
2020/09/10 15:01:38;;;;;;;4.85;1.63;;;;;;;20.92;69.23;100685.24;;;;-52
2020/09/10 15:04:38;;;;;;;3.39;1.59;;;;;;;20.91;69.37;100684.19;;;;-56
2020/09/10 15:07:38;;;;;;;3.64;1.53;;;;;;;20.91;69.34;100680.27;;;;-52
2020/09/10 15:10:38;;;;;;;5.85;1.70;;;;;;;20.91;69.17;100676.94;;;;-59
2020/09/10 15:13:38;;;;;;;2.47;1.51;;;;;;;20.91;69.31;100675.72;;;;-51
2020/09/10 15:16:37;;;;;;;3.63;1.59;;;;;;;20.91;69.25;100677.59;;;;-58
2020/09/10 15:19:37;;;;;;;3.93;1.57;;;;;;;20.90;69.09;100674.42;;;;-59
2020/09/10 15:22:37;;;;;;;4.15;1.52;;;;;;;20.90;69.12;100672.39;;;;-59
2020/09/10 15:25:38;;;;;;;2.33;1.49;;;;;;;20.89;69.01;100670.56;;;;-59
2020/09/10 15:28:37;;;;;;;4.64;1.50;;;;;;;20.89;69.01;100665.77;;;;-59
2020/09/10 15:31:38;;;;;;;3.88;1.50;;;;;;;20.88;68.98;100661.78;;;;-50
2020/09/10 15:34:37;;;;;;;5.15;1.85;;;;;;;20.87;69.03;100657.53;;;;-52
2020/09/10 15:37:37;;;;;;;8.15;1.57;;;;;;;20.87;68.96;100655.24;;;;-52
2020/09/10 15:40:38;;;;;;;4.25;1.64;;;;;;;20.88;69.10;100654.05;;;;-57
2020/09/10 15:43:37;;;;;;;5.54;1.66;;;;;;;20.89;69.02;100649.80;;;;-57
2020/09/10 15:46:37;;;;;;;4.55;1.57;;;;;;;20.90;68.98;100645.09;;;;-48
2020/09/10 15:49:37;;;;;;;6.73;1.80;;;;;;;20.89;68.93;100639.20;;;;-48
2020/09/10 15:52:37;;;;;;;3.39;1.72;;;;;;;20.89;68.89;100638.72;;;;-52
2020/09/10 15:55:37;;;;;;;5.19;1.49;;;;;;;20.88;68.85;100633.03;;;;-48
2020/09/10 15:58:38;;;;;;;4.43;1.59;;;;;;;20.88;68.89;100633.69;;;;-48
2020/09/10 16:01:37;;;;;;;8.51;1.73;;;;;;;20.87;68.88;100631.13;;;;-52
2020/09/10 16:04:37;;;;;;;3.97;1.57;;;;;;;20.87;68.80;100631.78;;;;-45
2020/09/10 16:07:37;;;;;;;7.63;1.76;;;;;;;20.86;68.79;100632.20;;;;-59
2020/09/10 16:10:37;;;;;;;2.89;1.61;;;;;;;20.86;68.75;100631.63;;;;-59
2020/09/10 16:13:38;;;;;;;4.19;1.65;;;;;;;20.86;68.74;100627.64;;;;-48
2020/09/10 16:16:38;;;;;;;3.12;1.61;;;;;;;20.85;68.73;100625.75;;;;-48
2020/09/10 16:19:37;;;;;;;4.16;1.56;;;;;;;20.85;68.73;100626.33;;;;-48
2020/09/10 16:22:37;;;;;;;4.78;1.75;;;;;;;20.84;68.74;100622.27;;;;-48
2020/09/10 16:25:37;;;;;;;2.89;1.49;;;;;;;20.85;68.70;100619.97;;;;-49
2020/09/10 16:28:37;;;;;;;3.00;1.40;;;;;;;20.84;68.69;100618.92;;;;-60
2020/09/10 16:31:38;;;;;;;3.15;1.41;;;;;;;20.84;68.67;100620.23;;;;-59
2020/09/10 16:34:37;;;;;;;2.85;1.50;;;;;;;20.83;68.66;100614.99;;;;-59
2020/09/10 16:37:37;;;;;;;2.69;1.58;;;;;;;20.83;68.64;100614.34;;;;-59
2020/09/10 16:40:37;;;;;;;5.01;1.61;;;;;;;20.83;68.59;100612.38;;;;-59